createdAt,value
2024-03-09T00:00:48.088Z,10.32
2024-03-09T00:01:48.126Z,10.32
2024-03-09T00:02:47.992Z,10.44
2024-03-09T00:03:47.891Z,10.34
2024-03-09T00:04:47.890Z,10.43
2024-03-09T00:05:47.829Z,10.33
2024-03-09T00:06:47.723Z,10.34
2024-03-09T00:07:47.688Z,10.33
2024-03-09T00:08:47.609Z,10.32
2024-03-09T00:09:47.541Z,10.34
2024-03-09T00:10:47.525Z,10.40
2024-03-09T00:11:47.500Z,10.36
2024-03-09T00:12:47.366Z,10.32
2024-03-09T00:13:47.349Z,10.36
2024-03-09T00:14:47.242Z,10.39
2024-03-09T00:15:47.193Z,10.33
2024-03-09T00:16:47.153Z,10.36
2024-03-09T00:17:47.083Z,10.39
2024-03-09T00:18:47.088Z,10.30
2024-03-09T00:19:47.056Z,10.33
2024-03-09T00:20:46.899Z,10.36
2024-03-09T00:21:46.834Z,10.32
2024-03-09T00:22:46.829Z,10.30
2024-03-09T00:23:46.710Z,10.33
2024-03-09T00:24:46.653Z,10.34
2024-03-09T00:25:46.637Z,10.36
2024-03-09T00:26:46.535Z,10.34
2024-03-09T00:27:46.498Z,10.39
2024-03-09T00:28:56.009Z,10.33
2024-03-09T00:29:46.361Z,10.34
2024-03-09T00:30:46.298Z,10.30
2024-03-09T00:31:46.280Z,10.30
2024-03-09T00:32:46.264Z,10.39
2024-03-09T00:33:46.121Z,10.30
2024-03-09T00:34:46.082Z,10.36
2024-03-09T00:35:46.003Z,10.40
2024-03-09T00:36:45.942Z,10.33
2024-03-09T00:37:45.975Z,10.42
2024-03-09T00:38:45.831Z,10.39
2024-03-09T00:39:45.864Z,10.36
2024-03-09T00:40:45.757Z,10.34
2024-03-09T00:41:45.652Z,10.39
2024-03-09T00:42:45.592Z,10.32
2024-03-09T00:43:46.168Z,10.33
2024-03-09T00:44:45.467Z,10.32
2024-03-09T00:45:45.412Z,10.37
2024-03-09T00:46:45.436Z,10.36
2024-03-09T00:47:45.304Z,10.40
2024-03-09T00:48:45.263Z,10.34
2024-03-09T00:49:46.111Z,10.30
2024-03-09T00:50:45.122Z,10.32
2024-03-09T00:51:45.056Z,10.30
2024-03-09T00:52:45.028Z,10.28
2024-03-09T00:53:44.938Z,10.32
2024-03-09T00:54:44.878Z,10.32
2024-03-09T00:55:44.828Z,10.30
2024-03-09T00:56:44.757Z,10.37
2024-03-09T00:57:44.704Z,10.28
2024-03-09T00:58:44.678Z,10.26
2024-03-09T00:59:44.619Z,10.22
2024-03-09T01:00:44.530Z,10.30
2024-03-09T01:01:44.515Z,10.34
2024-03-09T01:02:44.452Z,10.34
2024-03-09T01:03:44.352Z,10.34
2024-03-09T01:04:44.327Z,10.30
2024-03-09T01:05:44.227Z,10.30
2024-03-09T01:06:44.168Z,10.26
2024-03-09T01:07:44.164Z,10.28
2024-03-09T01:08:44.054Z,10.33
2024-03-09T01:09:44.037Z,10.30
2024-03-09T01:10:44.023Z,10.30
2024-03-09T01:11:43.968Z,10.30
2024-03-09T01:12:43.812Z,10.26
2024-03-09T01:13:43.788Z,10.26
2024-03-09T01:14:43.708Z,10.32
2024-03-09T01:15:43.672Z,10.30
2024-03-09T01:16:43.602Z,10.30
2024-03-09T01:17:43.696Z,10.32
2024-03-09T01:18:43.455Z,10.33
2024-03-09T01:19:43.462Z,10.32
2024-03-09T01:20:43.344Z,10.30
2024-03-09T01:21:43.279Z,10.28
2024-03-09T01:22:43.242Z,10.32
2024-03-09T01:23:43.174Z,10.28
2024-03-09T01:24:43.101Z,10.26
2024-03-09T01:25:43.089Z,10.26
2024-03-09T01:26:42.985Z,10.24
2024-03-09T01:27:42.944Z,10.19
2024-03-09T01:28:42.890Z,10.28
2024-03-09T01:29:42.807Z,10.19
2024-03-09T01:30:42.752Z,10.26
2024-03-09T01:31:42.779Z,10.25
2024-03-09T01:32:42.652Z,10.18
2024-03-09T01:33:42.572Z,10.21
2024-03-09T01:34:42.556Z,10.26
2024-03-09T01:35:42.463Z,10.25
2024-03-09T01:36:42.395Z,10.24
2024-03-09T01:37:42.348Z,10.19
2024-03-09T01:38:42.331Z,10.24
2024-03-09T01:39:42.214Z,10.26
2024-03-09T01:40:42.187Z,10.24
2024-03-09T01:41:42.095Z,10.19
2024-03-09T01:42:42.041Z,10.19
2024-03-09T01:43:42.025Z,10.24
2024-03-09T01:44:41.918Z,10.24
2024-03-09T01:45:41.859Z,10.18
2024-03-09T01:46:41.823Z,10.18
2024-03-09T01:47:41.791Z,10.25
2024-03-09T01:48:41.689Z,10.17
2024-03-09T01:49:41.658Z,10.19
2024-03-09T01:50:41.563Z,10.21
2024-03-09T01:51:41.504Z,10.15
2024-03-09T01:52:41.481Z,10.15
2024-03-09T01:53:41.385Z,10.21
2024-03-09T01:54:42.731Z,10.12
2024-03-09T01:55:41.308Z,10.19
2024-03-09T01:56:41.207Z,10.17
2024-03-09T01:57:41.149Z,10.21
2024-03-09T01:58:41.134Z,10.12
2024-03-09T01:59:41.043Z,10.15
2024-03-09T02:00:40.967Z,10.21
2024-03-09T02:01:40.918Z,10.12
2024-03-09T02:02:40.860Z,10.17
2024-03-09T02:03:40.824Z,10.21
2024-03-09T02:04:40.893Z,10.21
2024-03-09T02:05:40.676Z,10.18
2024-03-09T02:06:40.613Z,10.14
2024-03-09T02:07:40.603Z,10.12
2024-03-09T02:08:40.496Z,10.18
2024-03-09T02:09:40.437Z,10.15
2024-03-09T02:10:40.500Z,10.12
2024-03-09T02:11:40.381Z,10.10
2024-03-09T02:12:40.260Z,10.19
2024-03-09T02:13:40.223Z,10.12
2024-03-09T02:14:40.154Z,10.12
2024-03-09T02:15:40.089Z,10.14
2024-03-09T02:16:40.057Z,10.10
2024-03-09T02:17:40.020Z,10.14
2024-03-09T02:18:39.899Z,10.15
2024-03-09T02:19:40.138Z,10.17
2024-03-09T02:20:39.784Z,10.12
2024-03-09T02:21:39.728Z,10.15
2024-03-09T02:22:39.718Z,10.10
2024-03-09T02:23:39.617Z,10.18
2024-03-09T02:24:39.548Z,10.12
2024-03-09T02:25:39.519Z,10.14
2024-03-09T02:26:39.443Z,10.17
2024-03-09T02:27:39.379Z,10.17
2024-03-09T02:28:39.361Z,10.17
2024-03-09T02:29:39.259Z,10.14
2024-03-09T02:30:39.198Z,10.07
2024-03-09T02:31:39.189Z,10.06
2024-03-09T02:32:39.118Z,10.10
2024-03-09T02:33:39.014Z,10.14
2024-03-09T02:34:38.991Z,10.10
2024-03-09T02:35:38.926Z,10.15
2024-03-09T02:36:38.837Z,10.14
2024-03-09T02:37:38.808Z,10.06
2024-03-09T02:38:38.719Z,10.07
2024-03-09T02:39:38.659Z,10.10
2024-03-09T02:40:38.639Z,10.07
2024-03-09T02:41:38.831Z,10.10
2024-03-09T02:42:38.486Z,10.10
2024-03-09T02:43:38.572Z,10.04
2024-03-09T02:44:38.365Z,10.06
2024-03-09T02:45:38.317Z,10.15
2024-03-09T02:46:38.274Z,10.14
2024-03-09T02:47:38.203Z,10.14
2024-03-09T02:48:38.136Z,10.07
2024-03-09T02:49:38.122Z,10.10
2024-03-09T02:50:38.004Z,10.17
2024-03-09T02:51:37.990Z,10.03
2024-03-09T02:52:37.912Z,10.17
2024-03-09T02:53:37.831Z,10.09
2024-03-09T02:54:37.765Z,10.14
2024-03-09T02:55:37.761Z,10.07
2024-03-09T02:56:37.650Z,10.07
2024-03-09T02:57:37.592Z,10.09
2024-03-09T02:58:37.536Z,10.12
2024-03-09T02:59:37.472Z,10.06
2024-03-09T03:00:37.503Z,10.12
2024-03-09T03:01:37.405Z,10.03
2024-03-09T03:02:37.299Z,10.00
2024-03-09T03:03:37.249Z,10.01
2024-03-09T03:04:37.220Z,10.09
2024-03-09T03:05:37.126Z,10.09
2024-03-09T03:06:37.056Z,10.07
2024-03-09T03:07:37.077Z,10.03
2024-03-09T03:08:36.939Z,10.07
2024-03-09T03:09:36.876Z,10.07
2024-03-09T03:10:36.862Z,10.01
2024-03-09T03:11:36.837Z,9.99
2024-03-09T03:12:36.700Z,10.09
2024-03-09T03:13:36.653Z,10.06
2024-03-09T03:14:36.603Z,10.04
2024-03-09T03:15:36.524Z,10.01
2024-03-09T03:16:36.572Z,10.07
2024-03-09T03:17:36.435Z,10.10
2024-03-09T03:18:36.341Z,9.99
2024-03-09T03:19:36.348Z,10.10
2024-03-09T03:20:36.229Z,10.10
2024-03-09T03:21:36.189Z,10.04
2024-03-09T03:22:36.149Z,9.97
2024-03-09T03:23:36.082Z,10.09
2024-03-09T03:24:35.991Z,10.04
2024-03-09T03:25:36.092Z,10.04
2024-03-09T03:26:35.878Z,10.09
2024-03-09T03:27:36.037Z,10.09
2024-03-09T03:28:35.763Z,10.03
2024-03-09T03:29:35.692Z,10.01
2024-03-09T03:30:35.642Z,10.09
2024-03-09T03:31:35.617Z,10.14
2024-03-09T03:32:35.539Z,10.03
2024-03-09T03:33:35.462Z,10.04
2024-03-09T03:34:35.468Z,10.07
2024-03-09T03:35:35.398Z,10.06
2024-03-09T03:36:35.283Z,10.03
2024-03-09T03:37:35.236Z,10.03
2024-03-09T03:38:35.157Z,10.04
2024-03-09T03:39:35.133Z,10.07
2024-03-09T03:40:35.053Z,9.93
2024-03-09T03:41:34.980Z,10.12
2024-03-09T03:42:34.928Z,9.97
2024-03-09T03:43:34.882Z,10.04
2024-03-09T03:44:34.802Z,10.03
2024-03-09T03:45:34.744Z,10.03
2024-03-09T03:46:34.745Z,10.03
2024-03-09T03:47:34.656Z,9.94
2024-03-09T03:48:34.561Z,9.99
2024-03-09T03:49:34.557Z,9.96
2024-03-09T03:50:34.451Z,9.93
2024-03-09T03:51:34.385Z,9.93
2024-03-09T03:52:34.344Z,9.93
2024-03-09T03:53:34.269Z,9.99
2024-03-09T03:54:34.207Z,9.97
2024-03-09T03:55:34.446Z,10.00
2024-03-09T03:56:34.088Z,9.93
2024-03-09T03:57:34.030Z,9.97
2024-03-09T03:58:34.001Z,9.86
2024-03-09T03:59:33.910Z,9.99
2024-03-09T04:00:33.857Z,9.91
2024-03-09T04:01:33.909Z,9.96
2024-03-09T04:02:33.736Z,9.96
2024-03-09T04:03:33.672Z,9.96
2024-03-09T04:04:33.644Z,9.94
2024-03-09T04:05:33.557Z,9.94
2024-03-09T04:06:33.493Z,9.94
2024-03-09T04:07:33.476Z,10.00
2024-03-09T04:08:33.380Z,9.96
2024-03-09T04:09:33.319Z,9.99
2024-03-09T04:10:33.288Z,9.94
2024-03-09T04:11:33.315Z,9.94
2024-03-09T04:12:33.144Z,9.93
2024-03-09T04:13:33.183Z,9.93
2024-03-09T04:14:33.018Z,9.94
2024-03-09T04:15:32.971Z,9.91
2024-03-09T04:16:32.943Z,9.93
2024-03-09T04:17:32.859Z,9.93
2024-03-09T04:18:32.779Z,9.91
2024-03-09T04:19:32.776Z,9.97
2024-03-09T04:20:32.703Z,9.91
2024-03-09T04:21:32.605Z,9.89
2024-03-09T04:22:32.579Z,9.94
2024-03-09T04:23:32.486Z,9.91
2024-03-09T04:24:32.422Z,9.89
2024-03-09T04:25:32.397Z,9.93
2024-03-09T04:26:32.320Z,9.93
2024-03-09T04:27:32.286Z,9.89
2024-03-09T04:28:32.261Z,9.94
2024-03-09T04:29:32.126Z,9.93
2024-03-09T04:30:32.063Z,9.96
2024-03-09T04:31:32.009Z,9.94
2024-03-09T04:32:31.971Z,9.89
2024-03-09T04:33:31.909Z,9.88
2024-03-09T04:34:31.876Z,9.93
2024-03-09T04:35:31.779Z,9.94
2024-03-09T04:36:31.704Z,10.00
2024-03-09T04:37:31.686Z,9.93
2024-03-09T04:38:31.589Z,9.89
2024-03-09T04:39:31.575Z,9.94
2024-03-09T04:40:31.483Z,9.93
2024-03-09T04:41:31.419Z,9.88
2024-03-09T04:42:31.349Z,9.97
2024-03-09T04:43:31.347Z,9.89
2024-03-09T04:44:31.358Z,9.97
2024-03-09T04:45:31.177Z,9.89
2024-03-09T04:46:31.132Z,9.86
2024-03-09T04:47:31.074Z,10.00
2024-03-09T04:48:31.007Z,9.91
2024-03-09T04:49:30.960Z,9.89
2024-03-09T04:50:30.987Z,9.94
2024-03-09T04:51:30.816Z,9.97
2024-03-09T04:52:30.786Z,9.89
2024-03-09T04:53:30.705Z,9.88
2024-03-09T04:54:30.641Z,9.89
2024-03-09T04:55:30.635Z,9.86
2024-03-09T04:56:30.518Z,9.93
2024-03-09T04:57:30.458Z,9.93
2024-03-09T04:58:30.576Z,9.86
2024-03-09T04:59:30.370Z,9.93
2024-03-09T05:00:30.283Z,9.83
2024-03-09T05:01:30.250Z,9.85
2024-03-09T05:02:30.169Z,9.85
2024-03-09T05:03:30.114Z,9.89
2024-03-09T05:04:30.070Z,9.93
2024-03-09T05:05:29.985Z,9.88
2024-03-09T05:06:29.923Z,9.83
2024-03-09T05:07:29.896Z,9.85
2024-03-09T05:08:29.804Z,9.86
2024-03-09T05:09:29.749Z,9.81
2024-03-09T05:10:29.749Z,9.93
2024-03-09T05:11:29.679Z,9.89
2024-03-09T05:12:29.567Z,9.88
2024-03-09T05:13:29.530Z,9.91
2024-03-09T05:14:29.446Z,9.82
2024-03-09T05:15:29.416Z,9.86
2024-03-09T05:16:31.665Z,9.81
2024-03-09T05:17:29.306Z,9.82
2024-03-09T05:18:29.264Z,9.81
2024-03-09T05:19:29.199Z,9.85
2024-03-09T05:20:29.113Z,9.85
2024-03-09T05:21:29.030Z,9.86
2024-03-09T05:22:29.005Z,9.85
2024-03-09T05:23:28.936Z,9.86
2024-03-09T05:24:28.855Z,9.82
2024-03-09T05:25:28.842Z,9.88
2024-03-09T05:26:28.739Z,9.78
2024-03-09T05:27:28.676Z,9.86
2024-03-09T05:28:28.641Z,9.81
2024-03-09T05:29:28.571Z,9.86
2024-03-09T05:30:28.497Z,9.83
2024-03-09T05:31:28.621Z,9.83
2024-03-09T05:32:28.435Z,9.85
2024-03-09T05:33:28.407Z,9.83
2024-03-09T05:34:28.357Z,9.85
2024-03-09T05:35:28.210Z,9.83
2024-03-09T05:36:28.257Z,9.85
2024-03-09T05:37:28.154Z,9.86
2024-03-09T05:38:28.154Z,9.83
2024-03-09T05:39:27.962Z,9.79
2024-03-09T05:40:27.994Z,9.85
2024-03-09T05:41:27.847Z,9.81
2024-03-09T05:42:27.787Z,9.81
2024-03-09T05:43:27.768Z,9.82
2024-03-09T05:44:27.669Z,9.79
2024-03-09T05:45:27.602Z,9.82
2024-03-09T05:46:27.554Z,9.82
2024-03-09T05:47:27.680Z,9.76
2024-03-09T05:48:27.422Z,9.79
2024-03-09T05:49:27.423Z,9.73
2024-03-09T05:50:27.308Z,9.82
2024-03-09T05:51:27.254Z,9.79
2024-03-09T05:52:27.292Z,9.78
2024-03-09T05:53:27.134Z,9.86
2024-03-09T05:54:27.072Z,9.83
2024-03-09T05:55:27.054Z,9.82
2024-03-09T05:56:26.970Z,9.78
2024-03-09T05:57:26.891Z,9.71
2024-03-09T05:58:26.837Z,9.75
2024-03-09T05:59:26.775Z,9.78
2024-03-09T06:00:26.991Z,9.81
2024-03-09T06:01:26.670Z,9.78
2024-03-09T06:03:02.229Z,9.82
2024-03-09T06:03:26.532Z,9.79
2024-03-09T06:04:26.473Z,9.82
2024-03-09T06:05:26.413Z,9.78
2024-03-09T06:06:26.353Z,9.73
2024-03-09T06:07:26.308Z,9.78
2024-03-09T06:08:26.264Z,9.76
2024-03-09T06:09:26.176Z,9.78
2024-03-09T06:10:26.429Z,9.78
2024-03-09T06:11:26.145Z,9.81
2024-03-09T06:12:26.091Z,9.75
2024-03-09T06:13:25.951Z,9.85
2024-03-09T06:14:25.876Z,9.78
2024-03-09T06:15:25.992Z,9.70
2024-03-09T06:16:32.705Z,9.76
2024-03-09T06:17:25.716Z,9.79
2024-03-09T06:18:25.870Z,9.76
2024-03-09T06:19:25.577Z,9.76
2024-03-09T06:20:25.521Z,9.79
2024-03-09T06:21:25.482Z,9.73
2024-03-09T06:22:25.399Z,9.78
2024-03-09T06:23:25.351Z,9.76
2024-03-09T06:24:25.293Z,9.79
2024-03-09T06:25:26.198Z,9.71
2024-03-09T06:26:25.215Z,9.82
2024-03-09T06:27:25.120Z,9.79
2024-03-09T06:28:25.044Z,9.73
2024-03-09T06:29:24.993Z,9.79
2024-03-09T06:30:29.287Z,9.81
2024-03-09T06:31:24.864Z,9.68
2024-03-09T06:32:24.802Z,9.79
2024-03-09T06:33:24.746Z,9.68
2024-03-09T06:34:26.659Z,9.79
2024-03-09T06:35:24.630Z,9.71
2024-03-09T06:36:24.597Z,9.78
2024-03-09T06:38:00.776Z,9.78
2024-03-09T06:38:24.462Z,9.76
2024-03-09T06:39:24.392Z,9.76
2024-03-09T06:40:24.332Z,9.78
2024-03-09T06:41:26.302Z,9.78
2024-03-09T06:42:24.207Z,9.78
2024-03-09T06:43:24.151Z,9.79
2024-03-09T06:44:24.091Z,9.73
2024-03-09T06:45:45.096Z,9.79
2024-03-09T06:46:23.968Z,9.79
2024-03-09T06:47:23.910Z,9.81
2024-03-09T06:48:23.849Z,9.81
2024-03-09T06:49:23.789Z,9.73
2024-03-09T06:50:23.777Z,9.76
2024-03-09T06:51:23.672Z,9.79
2024-03-09T06:52:23.623Z,9.68
2024-03-09T06:53:23.676Z,9.76
2024-03-09T06:54:23.493Z,9.78
2024-03-09T06:55:23.438Z,9.76
2024-03-09T06:56:23.412Z,9.68
2024-03-09T06:57:23.317Z,9.76
2024-03-09T06:58:23.252Z,9.78
2024-03-09T06:59:23.200Z,9.79
2024-03-09T07:00:23.148Z,9.78
2024-03-09T07:01:23.171Z,9.75
2024-03-09T07:02:23.044Z,9.75
2024-03-09T07:03:22.978Z,9.79
2024-03-09T07:04:22.896Z,9.71
2024-03-09T07:05:22.913Z,9.76
2024-03-09T07:06:58.673Z,9.73
2024-03-09T07:07:22.729Z,9.78
2024-03-09T07:08:22.882Z,9.68
2024-03-09T07:09:22.599Z,9.75
2024-03-09T07:10:22.539Z,9.79
2024-03-09T07:11:22.553Z,9.68
2024-03-09T07:12:22.529Z,9.81
2024-03-09T07:13:22.455Z,9.78
2024-03-09T07:14:22.301Z,9.78
2024-03-09T07:15:22.241Z,9.75
2024-03-09T07:16:22.184Z,9.79
2024-03-09T07:17:22.125Z,9.81
2024-03-09T07:18:22.109Z,9.78
2024-03-09T07:19:22.021Z,9.68
2024-03-09T07:20:21.992Z,9.68
2024-03-09T07:21:21.921Z,9.75
2024-03-09T07:22:21.872Z,9.68
2024-03-09T07:23:21.859Z,9.78
2024-03-09T07:24:21.709Z,9.71
2024-03-09T07:25:21.647Z,9.82
2024-03-09T07:26:21.671Z,9.73
2024-03-09T07:27:21.525Z,9.71
2024-03-09T07:28:21.469Z,9.82
2024-03-09T07:29:21.470Z,9.81
2024-03-09T07:30:21.348Z,9.79
2024-03-09T07:31:21.288Z,9.75
2024-03-09T07:32:21.357Z,9.75
2024-03-09T07:33:21.272Z,9.82
2024-03-09T07:34:21.108Z,9.81
2024-03-09T07:35:21.186Z,9.79
2024-03-09T07:36:21.006Z,9.79
2024-03-09T07:37:23.979Z,9.85
2024-03-09T07:38:21.000Z,9.79
2024-03-09T07:39:20.816Z,9.78
2024-03-09T07:40:25.723Z,9.76
2024-03-09T07:41:20.732Z,9.73
2024-03-09T07:42:20.634Z,9.76
2024-03-09T07:43:20.570Z,9.76
2024-03-09T07:44:20.578Z,9.75
2024-03-09T07:45:20.453Z,9.76
2024-03-09T07:46:20.394Z,9.79
2024-03-09T07:47:20.353Z,9.82
2024-03-09T07:48:20.276Z,9.82
2024-03-09T07:49:20.215Z,9.71
2024-03-09T07:50:20.207Z,9.78
2024-03-09T07:51:20.094Z,9.82
2024-03-09T07:52:20.041Z,9.82
2024-03-09T07:53:20.072Z,9.81
2024-03-09T07:54:19.945Z,9.73
2024-03-09T07:55:19.896Z,9.78
2024-03-09T07:56:19.848Z,9.81
2024-03-09T07:57:19.740Z,9.79
2024-03-09T07:58:25.662Z,9.79
2024-03-09T07:59:19.661Z,9.79
2024-03-09T08:00:19.591Z,9.78
2024-03-09T08:01:19.544Z,9.83
2024-03-09T08:02:19.497Z,9.81
2024-03-09T08:03:19.389Z,9.82
2024-03-09T08:04:19.322Z,9.78
2024-03-09T08:05:19.301Z,9.82
2024-03-09T08:06:19.204Z,9.79
2024-03-09T08:07:19.157Z,9.82
2024-03-09T08:08:19.228Z,9.79
2024-03-09T08:09:19.030Z,9.79
2024-03-09T08:10:19.123Z,9.79
2024-03-09T08:11:19.157Z,9.85
2024-03-09T08:12:18.851Z,9.85
2024-03-09T08:13:19.064Z,9.82
2024-03-09T08:14:18.776Z,9.75
2024-03-09T08:15:18.734Z,9.83
2024-03-09T08:16:18.614Z,9.78
2024-03-09T08:17:18.598Z,9.78
2024-03-09T08:18:18.484Z,9.78
2024-03-09T08:19:18.432Z,9.79
2024-03-09T08:20:18.408Z,9.76
2024-03-09T08:21:18.320Z,9.78
2024-03-09T08:22:18.249Z,9.78
2024-03-09T08:23:18.316Z,9.78
2024-03-09T08:24:18.156Z,9.78
2024-03-09T08:25:18.074Z,9.83
2024-03-09T08:26:21.813Z,9.73
2024-03-09T08:27:17.951Z,9.78
2024-03-09T08:28:17.916Z,9.73
2024-03-09T08:29:49.798Z,9.75
2024-03-09T08:30:17.780Z,9.78
2024-03-09T08:31:17.714Z,9.73
2024-03-09T08:32:17.747Z,9.79
2024-03-09T08:33:17.645Z,9.78
2024-03-09T08:34:25.150Z,9.79
2024-03-09T08:35:17.582Z,9.78
2024-03-09T08:36:17.414Z,9.82
2024-03-09T08:37:17.407Z,9.78
2024-03-09T08:38:17.429Z,9.82
2024-03-09T08:39:17.240Z,9.79
2024-03-09T08:40:17.182Z,9.75
2024-03-09T08:41:17.209Z,9.79
2024-03-09T08:42:17.087Z,9.82
2024-03-09T08:43:16.999Z,9.76
2024-03-09T08:44:16.983Z,9.79
2024-03-09T08:45:16.906Z,9.82
2024-03-09T08:46:16.823Z,9.82
2024-03-09T08:47:16.791Z,9.78
2024-03-09T08:48:16.701Z,9.76
2024-03-09T08:49:16.653Z,9.78
2024-03-09T08:50:16.619Z,9.79
2024-03-09T08:51:16.528Z,9.79
2024-03-09T08:52:17.570Z,9.75
2024-03-09T08:53:16.515Z,9.79
2024-03-09T08:54:16.345Z,9.78
2024-03-09T08:55:16.305Z,9.81
2024-03-09T08:56:16.282Z,9.76
2024-03-09T08:57:16.165Z,9.81
2024-03-09T08:58:16.153Z,9.79
2024-03-09T08:59:16.065Z,9.76
2024-03-09T09:00:15.992Z,9.79
2024-03-09T09:01:15.948Z,9.83
2024-03-09T09:02:15.931Z,9.76
2024-03-09T09:03:15.826Z,9.83
2024-03-09T09:04:15.749Z,9.81
2024-03-09T09:05:15.999Z,9.81
2024-03-09T09:06:15.634Z,9.76
2024-03-09T09:07:15.568Z,9.82
2024-03-09T09:08:15.564Z,9.82
2024-03-09T09:09:15.454Z,9.82
2024-03-09T09:10:15.397Z,9.78
2024-03-09T09:11:15.544Z,9.81
2024-03-09T09:12:15.273Z,9.76
2024-03-09T09:13:15.223Z,9.82
2024-03-09T09:14:15.224Z,9.82
2024-03-09T09:15:15.097Z,9.82
2024-03-09T09:16:15.035Z,9.86
2024-03-09T09:17:15.066Z,9.83
2024-03-09T09:18:14.954Z,9.83
2024-03-09T09:19:14.873Z,9.82
2024-03-09T09:20:15.736Z,9.83
2024-03-09T09:21:14.749Z,9.85
2024-03-09T09:22:14.681Z,9.85
2024-03-09T09:23:14.678Z,9.88
2024-03-09T09:24:14.563Z,9.83
2024-03-09T09:25:14.880Z,9.89
2024-03-09T09:26:14.627Z,9.88
2024-03-09T09:27:14.478Z,9.91
2024-03-09T09:28:14.324Z,9.85
2024-03-09T09:29:14.296Z,9.86
2024-03-09T09:30:14.256Z,9.86
2024-03-09T09:31:14.141Z,9.88
2024-03-09T09:32:14.194Z,9.86
2024-03-09T09:33:14.121Z,9.89
2024-03-09T09:34:13.973Z,9.89
2024-03-09T09:35:14.205Z,9.89
2024-03-09T09:36:13.849Z,9.89
2024-03-09T09:38:45.393Z,9.96
2024-03-09T09:39:45.315Z,9.94
2024-03-09T09:41:38.181Z,9.93
2024-03-09T09:42:38.096Z,9.89
2024-03-09T09:44:30.956Z,9.93
2024-03-09T09:45:30.914Z,9.88
2024-03-09T09:47:23.760Z,9.88
2024-03-09T09:48:23.693Z,9.91
2024-03-09T09:50:16.616Z,10.01
2024-03-09T09:51:16.475Z,9.94
2024-03-09T09:53:09.963Z,10.06
2024-03-09T09:54:09.261Z,10.06
2024-03-09T09:56:02.171Z,10.04
2024-03-09T09:57:02.055Z,10.01
2024-03-09T09:58:54.906Z,10.03
2024-03-09T09:59:54.822Z,10.07
2024-03-09T10:01:47.747Z,10.00
2024-03-09T10:02:51.045Z,10.00
2024-03-09T10:04:40.513Z,10.01
2024-03-09T10:05:40.433Z,9.99
2024-03-09T10:07:33.321Z,10.09
2024-03-09T10:08:33.180Z,10.01
2024-03-09T10:10:26.038Z,10.07
2024-03-09T10:11:26.091Z,10.15
2024-03-09T10:13:18.827Z,10.17
2024-03-09T10:14:18.775Z,10.14
2024-03-09T10:16:11.665Z,10.07
2024-03-09T10:17:11.719Z,10.14
2024-03-09T10:19:04.403Z,10.18
2024-03-09T10:20:04.464Z,10.19
2024-03-09T10:21:57.190Z,10.22
2024-03-09T10:22:57.139Z,10.25
2024-03-09T10:24:49.977Z,10.24
2024-03-09T10:25:50.089Z,10.26
2024-03-09T10:27:43.352Z,10.26
2024-03-09T10:28:43.108Z,10.30
2024-03-09T10:30:35.744Z,10.26
2024-03-09T10:32:48.650Z,10.33
2024-03-09T10:33:48.557Z,10.39
2024-03-09T10:35:41.550Z,10.40
2024-03-09T10:36:41.298Z,10.40
2024-03-09T10:38:34.150Z,10.32
2024-03-09T10:39:34.097Z,10.30
2024-03-09T10:41:27.048Z,10.44
2024-03-09T10:42:26.882Z,10.42
2024-03-09T10:44:19.773Z,10.46
2024-03-09T10:45:22.449Z,10.51
2024-03-09T10:47:12.659Z,10.42
2024-03-09T10:48:12.569Z,10.47
2024-03-09T10:50:05.328Z,10.53
2024-03-09T10:51:05.814Z,10.51
2024-03-09T10:52:58.122Z,10.58
2024-03-09T10:53:58.015Z,10.62
2024-03-09T10:55:50.896Z,10.60
2024-03-09T10:56:54.145Z,10.58
2024-03-09T10:58:43.674Z,10.71
2024-03-09T10:59:43.598Z,10.62
2024-03-09T11:01:36.565Z,10.62
2024-03-09T11:02:36.587Z,10.70
2024-03-09T11:04:29.292Z,10.77
2024-03-09T11:05:29.188Z,10.76
2024-03-09T11:07:22.041Z,10.76
2024-03-09T11:08:21.977Z,10.88
2024-03-09T11:10:14.830Z,10.77
2024-03-09T11:11:14.952Z,10.89
2024-03-09T11:13:07.592Z,10.83
2024-03-09T11:14:07.639Z,10.84
2024-03-09T11:16:00.395Z,10.84
2024-03-09T11:17:00.332Z,10.92
2024-03-09T11:18:53.174Z,10.92
2024-03-09T11:19:53.164Z,10.96
2024-03-09T11:21:47.754Z,10.99
2024-03-09T11:22:45.947Z,11.02
2024-03-09T11:24:38.754Z,11.02
2024-03-09T11:25:38.700Z,11.02
2024-03-09T11:27:31.537Z,11.02
2024-03-09T11:28:31.478Z,11.06
2024-03-09T11:30:24.343Z,11.11
2024-03-09T11:31:24.268Z,11.03
2024-03-09T11:33:17.193Z,11.03
2024-03-09T11:34:17.054Z,11.06
2024-03-09T11:36:09.942Z,11.14
2024-03-09T11:37:09.849Z,11.16
2024-03-09T11:39:02.691Z,11.10
2024-03-09T11:40:02.621Z,11.17
2024-03-09T11:41:55.481Z,11.16
2024-03-09T11:42:55.409Z,11.13
2024-03-09T11:44:48.283Z,11.20
2024-03-09T11:45:48.200Z,11.20
2024-03-09T11:47:41.082Z,11.24
2024-03-09T11:48:40.995Z,11.32
2024-03-09T11:50:33.843Z,11.28
2024-03-09T11:51:33.798Z,11.32
2024-03-09T11:53:26.633Z,11.36
2024-03-09T11:54:26.567Z,11.32
2024-03-09T11:56:19.461Z,11.31
2024-03-09T11:57:19.349Z,11.38
2024-03-09T11:59:12.474Z,11.43
2024-03-09T12:00:12.142Z,11.41
2024-03-09T12:02:05.149Z,11.39
2024-03-09T12:03:04.931Z,11.43
2024-03-09T12:04:57.821Z,11.54
2024-03-09T12:05:57.726Z,11.52
2024-03-09T12:07:50.647Z,11.54
2024-03-09T12:08:50.508Z,11.57
2024-03-09T12:10:43.411Z,11.53
2024-03-09T12:11:43.438Z,11.54
2024-03-09T12:13:36.170Z,11.65
2024-03-09T12:14:36.086Z,11.62
2024-03-09T12:16:28.988Z,11.61
2024-03-09T12:17:28.966Z,11.65
2024-03-09T12:19:22.323Z,11.62
2024-03-09T12:20:21.970Z,11.64
2024-03-09T12:22:14.720Z,11.70
2024-03-09T12:23:17.300Z,11.70
2024-03-09T12:25:07.507Z,11.70
2024-03-09T12:26:07.520Z,11.70
2024-03-09T12:28:00.878Z,11.68
2024-03-09T12:29:00.669Z,11.65
2024-03-09T12:30:53.271Z,11.78
2024-03-09T12:31:53.217Z,11.80
2024-03-09T12:33:46.056Z,11.74
2024-03-09T12:34:46.048Z,11.80
2024-03-09T12:36:38.856Z,11.83
2024-03-09T12:37:38.816Z,11.82
2024-03-09T12:39:31.682Z,11.93
2024-03-09T12:40:31.585Z,11.94
2024-03-09T12:42:24.432Z,11.86
2024-03-09T12:43:24.366Z,11.96
2024-03-09T12:45:17.346Z,11.97
2024-03-09T12:46:17.160Z,11.97
2024-03-09T12:48:10.064Z,12.02
2024-03-09T12:49:09.951Z,11.94
2024-03-09T12:51:02.822Z,12.01
2024-03-09T12:52:02.794Z,11.96
2024-03-09T12:53:55.605Z,11.99
2024-03-09T12:54:55.573Z,11.94
2024-03-09T12:56:48.423Z,12.01
2024-03-09T12:57:48.332Z,12.01
2024-03-09T12:59:41.186Z,12.08
2024-03-09T13:00:41.135Z,12.04
2024-03-09T13:02:34.020Z,12.08
2024-03-09T13:03:33.912Z,12.02
2024-03-09T13:05:26.779Z,12.09
2024-03-09T13:06:26.696Z,12.06
2024-03-09T13:08:19.639Z,12.12
2024-03-09T13:09:19.493Z,12.05
2024-03-09T13:11:12.515Z,12.12
2024-03-09T13:12:12.304Z,12.15
2024-03-09T13:14:05.304Z,12.20
2024-03-09T13:15:05.070Z,12.09
2024-03-09T13:16:57.946Z,12.26
2024-03-09T13:17:58.054Z,12.16
2024-03-09T13:19:50.754Z,12.26
2024-03-09T13:20:50.641Z,12.30
2024-03-09T13:22:43.505Z,12.31
2024-03-09T13:23:43.439Z,12.30
2024-03-09T13:25:36.434Z,12.38
2024-03-09T13:26:36.284Z,12.31
2024-03-09T13:28:29.674Z,12.34
2024-03-09T13:29:30.794Z,12.42
2024-03-09T13:31:22.067Z,12.33
2024-03-09T13:32:22.061Z,12.33
2024-03-09T13:34:14.852Z,12.42
2024-03-09T13:35:14.857Z,12.31
2024-03-09T13:37:08.231Z,12.44
2024-03-09T13:38:08.019Z,12.48
2024-03-09T13:40:00.627Z,12.51
2024-03-09T13:41:00.681Z,12.42
2024-03-09T13:42:53.439Z,12.45
2024-03-09T13:43:53.504Z,12.45
2024-03-09T13:45:46.208Z,12.46
2024-03-09T13:46:46.159Z,12.41
2024-03-09T13:48:38.991Z,12.52
2024-03-09T13:49:38.965Z,12.46
2024-03-09T13:51:31.796Z,12.42
2024-03-09T13:52:31.722Z,12.42
2024-03-09T13:54:24.637Z,12.56
2024-03-09T13:55:24.504Z,12.46
2024-03-09T13:57:27.894Z,12.59
2024-03-09T13:58:17.325Z,12.56
2024-03-09T14:00:10.742Z,12.57
2024-03-09T14:01:10.513Z,12.52
2024-03-09T14:03:03.141Z,12.57
2024-03-09T14:04:03.098Z,12.59
2024-03-09T14:05:55.920Z,12.67
2024-03-09T14:07:06.976Z,12.67
2024-03-09T14:08:48.718Z,12.71
2024-03-09T14:09:48.698Z,12.63
2024-03-09T14:11:41.682Z,12.62
2024-03-09T14:12:41.439Z,12.67
2024-03-09T14:14:45.012Z,12.74
2024-03-09T14:15:34.347Z,12.77
2024-03-09T14:17:27.676Z,12.74
2024-03-09T14:18:27.027Z,12.77
2024-03-09T14:20:19.923Z,12.75
2024-03-09T14:21:19.819Z,12.79
2024-03-09T14:23:13.286Z,12.75
2024-03-09T14:25:25.725Z,12.77
2024-03-09T14:26:25.762Z,12.77
2024-03-09T14:28:18.492Z,12.77
2024-03-09T14:29:21.457Z,12.79
2024-03-09T14:31:11.325Z,12.77
2024-03-09T14:32:11.258Z,12.81
2024-03-09T14:34:04.083Z,12.78
2024-03-09T14:35:04.028Z,12.78
2024-03-09T14:36:56.866Z,12.78
2024-03-09T14:37:56.859Z,12.71